sensor_id;sensor_type;location;lat;lon;timestamp;temperature;humidity
9385;DHT22;4732;49.340;10.886;2023-03-07T04:02:47;1.50;99.90
9385;DHT22;4732;49.340;10.886;2023-03-07T04:05:13;1.50;99.90
9385;DHT22;4732;49.340;10.886;2023-03-07T04:07:38;1.50;99.90
9385;DHT22;4732;49.340;10.886;2023-03-07T04:10:04;1.50;99.90
9385;DHT22;4732;49.340;10.886;2023-03-07T04:12:31;1.50;99.90
9385;DHT22;4732;49.340;10.886;2023-03-07T04:14:56;1.50;99.90
9385;DHT22;4732;49.340;10.886;2023-03-07T04:17:22;1.50;99.90
9385;DHT22;4732;49.340;10.886;2023-03-07T04:20:07;1.50;99.90
9385;DHT22;4732;49.340;10.886;2023-03-07T04:26:02;1.40;99.90
9385;DHT22;4732;49.340;10.886;2023-03-07T04:28:30;1.40;99.90
9385;DHT22;4732;49.340;10.886;2023-03-07T04:31:12;1.50;99.90
9385;DHT22;4732;49.340;10.886;2023-03-07T04:43:53;1.50;99.90
9385;DHT22;4732;49.340;10.886;2023-03-07T04:46:19;1.50;99.90
9385;DHT22;4732;49.340;10.886;2023-03-07T04:48:45;1.50;99.90
9385;DHT22;4732;49.340;10.886;2023-03-07T04:51:12;1.60;99.90
9385;DHT22;4732;49.340;10.886;2023-03-07T04:53:37;1.60;99.90
9385;DHT22;4732;49.340;10.886;2023-03-07T04:56:05;1.60;99.90
9385;DHT22;4732;49.340;10.886;2023-03-07T04:58:31;1.60;99.90
9385;DHT22;4732;49.340;10.886;2023-03-07T05:00:58;1.60;99.90
9385;DHT22;4732;49.340;10.886;2023-03-07T05:03:25;1.60;99.90
9385;DHT22;4732;49.340;10.886;2023-03-07T05:05:51;1.60;99.90
9385;DHT22;4732;49.340;10.886;2023-03-07T05:08:17;1.60;99.90
9385;DHT22;4732;49.340;10.886;2023-03-07T05:10:43;1.60;99.90
9385;DHT22;4732;49.340;10.886;2023-03-07T05:13:09;1.60;99.90
9385;DHT22;4732;49.340;10.886;2023-03-07T05:15:35;1.60;99.90
9385;DHT22;4732;49.340;10.886;2023-03-07T05:18:01;1.60;99.90
9385;DHT22;4732;49.340;10.886;2023-03-07T05:20:26;1.50;99.90
9385;DHT22;4732;49.340;10.886;2023-03-07T05:22:54;1.50;99.90
9385;DHT22;4732;49.340;10.886;2023-03-07T05:25:20;1.50;99.90
9385;DHT22;4732;49.340;10.886;2023-03-07T05:27:46;1.40;99.90
9385;DHT22;4732;49.340;10.886;2023-03-07T05:30:13;1.40;99.90
9385;DHT22;4732;49.340;10.886;2023-03-07T05:32:40;1.40;99.90
9385;DHT22;4732;49.340;10.886;2023-03-07T05:35:07;1.40;99.90
9385;DHT22;4732;49.340;10.886;2023-03-07T05:37:33;1.40;99.90
9385;DHT22;4732;49.340;10.886;2023-03-07T05:39:58;1.30;99.90
9385;DHT22;4732;49.340;10.886;2023-03-07T05:42:24;1.30;99.90
9385;DHT22;4732;49.340;10.886;2023-03-07T05:44:50;1.40;99.90
9385;DHT22;4732;49.340;10.886;2023-03-07T06:25:17;1.60;99.90
9385;DHT22;4732;49.340;10.886;2023-03-07T06:27:49;1.60;99.90
9385;DHT22;4732;49.340;10.886;2023-03-07T06:30:14;1.70;99.90
9385;DHT22;4732;49.340;10.886;2023-03-07T06:32:40;1.70;99.90
9385;DHT22;4732;49.340;10.886;2023-03-07T06:35:06;1.70;99.90
9385;DHT22;4732;49.340;10.886;2023-03-07T06:37:32;1.80;99.90
9385;DHT22;4732;49.340;10.886;2023-03-07T06:40:02;1.80;99.90
9385;DHT22;4732;49.340;10.886;2023-03-07T06:42:37;1.90;99.90
9385;DHT22;4732;49.340;10.886;2023-03-07T06:45:18;1.90;99.90
9385;DHT22;4732;49.340;10.886;2023-03-07T06:48:03;1.90;99.90
9385;DHT22;4732;49.340;10.886;2023-03-07T06:51:14;1.90;99.90
9385;DHT22;4732;49.340;10.886;2023-03-07T06:53:43;1.90;99.90
9385;DHT22;4732;49.340;10.886;2023-03-07T07:00:10;2.00;99.90
9385;DHT22;4732;49.340;10.886;2023-03-07T07:03:12;2.00;99.90
9385;DHT22;4732;49.340;10.886;2023-03-07T07:08:47;2.10;99.90
9385;DHT22;4732;49.340;10.886;2023-03-07T07:11:19;2.20;99.90
9385;DHT22;4732;49.340;10.886;2023-03-07T07:13:54;2.20;99.90
9385;DHT22;4732;49.340;10.886;2023-03-07T07:16:53;2.20;99.90
9385;DHT22;4732;49.340;10.886;2023-03-07T07:19:18;2.30;99.90
9385;DHT22;4732;49.340;10.886;2023-03-07T07:21:58;2.30;99.90
9385;DHT22;4732;49.340;10.886;2023-03-07T07:24:26;2.40;99.90
9385;DHT22;4732;49.340;10.886;2023-03-07T07:27:01;2.40;99.90
9385;DHT22;4732;49.340;10.886;2023-03-07T07:29:28;2.40;99.90
9385;DHT22;4732;49.340;10.886;2023-03-07T07:32:21;2.40;99.90
9385;DHT22;4732;49.340;10.886;2023-03-07T07:35:05;2.50;99.90
9385;DHT22;4732;49.340;10.886;2023-03-07T07:37:31;2.50;99.90
9385;DHT22;4732;49.340;10.886;2023-03-07T07:39:57;2.50;99.90
9385;DHT22;4732;49.340;10.886;2023-03-07T07:42:22;2.60;99.90
9385;DHT22;4732;49.340;10.886;2023-03-07T07:45:29;2.60;99.90
9385;DHT22;4732;49.340;10.886;2023-03-07T07:48:14;2.70;99.90
9385;DHT22;4732;49.340;10.886;2023-03-07T07:50:39;2.80;99.90
9385;DHT22;4732;49.340;10.886;2023-03-07T07:53:05;2.80;99.90
9385;DHT22;4732;49.340;10.886;2023-03-07T07:55:30;2.80;99.90
9385;DHT22;4732;49.340;10.886;2023-03-07T07:57:56;2.90;99.90
9385;DHT22;4732;49.340;10.886;2023-03-07T08:00:22;3.00;99.90
9385;DHT22;4732;49.340;10.886;2023-03-07T08:02:47;3.00;99.90
9385;DHT22;4732;49.340;10.886;2023-03-07T08:05:14;3.10;99.90
9385;DHT22;4732;49.340;10.886;2023-03-07T08:07:40;3.10;99.90
9385;DHT22;4732;49.340;10.886;2023-03-07T08:10:06;3.10;99.90
9385;DHT22;4732;49.340;10.886;2023-03-07T08:12:32;3.10;99.90
9385;DHT22;4732;49.340;10.886;2023-03-07T08:14:58;3.10;99.90
9385;DHT22;4732;49.340;10.886;2023-03-07T08:17:23;3.20;99.90
9385;DHT22;4732;49.340;10.886;2023-03-07T08:19:49;3.30;99.90
9385;DHT22;4732;49.340;10.886;2023-03-07T08:22:14;3.30;99.90
9385;DHT22;4732;49.340;10.886;2023-03-07T08:24:41;3.30;99.90
9385;DHT22;4732;49.340;10.886;2023-03-07T08:27:07;3.30;99.90
9385;DHT22;4732;49.340;10.886;2023-03-07T08:29:33;3.40;99.90
9385;DHT22;4732;49.340;10.886;2023-03-07T08:31:59;3.40;99.90
9385;DHT22;4732;49.340;10.886;2023-03-07T08:34:26;3.40;99.90
9385;DHT22;4732;49.340;10.886;2023-03-07T08:36:51;3.50;99.90
9385;DHT22;4732;49.340;10.886;2023-03-07T08:39:17;3.50;99.90
9385;DHT22;4732;49.340;10.886;2023-03-07T08:41:43;3.50;99.90
9385;DHT22;4732;49.340;10.886;2023-03-07T08:44:08;3.50;99.90
9385;DHT22;4732;49.340;10.886;2023-03-07T08:46:34;3.50;99.90
9385;DHT22;4732;49.340;10.886;2023-03-07T08:49:00;3.50;99.90
9385;DHT22;4732;49.340;10.886;2023-03-07T08:51:26;3.50;99.90
9385;DHT22;4732;49.340;10.886;2023-03-07T08:53:51;3.60;99.90
9385;DHT22;4732;49.340;10.886;2023-03-07T08:56:18;3.50;99.90
9385;DHT22;4732;49.340;10.886;2023-03-07T08:58:44;3.60;99.90
9385;DHT22;4732;49.340;10.886;2023-03-07T09:01:10;3.50;99.90
9385;DHT22;4732;49.340;10.886;2023-03-07T09:03:37;3.60;99.90
9385;DHT22;4732;49.340;10.886;2023-03-07T09:06:04;3.60;99.90
9385;DHT22;4732;49.340;10.886;2023-03-07T09:08:30;3.60;99.90
9385;DHT22;4732;49.340;10.886;2023-03-07T09:10:59;3.60;99.90
9385;DHT22;4732;49.340;10.886;2023-03-07T09:13:26;3.70;99.90
9385;DHT22;4732;49.340;10.886;2023-03-07T09:15:51;3.70;99.90
9385;DHT22;4732;49.340;10.886;2023-03-07T09:18:17;3.80;99.90
9385;DHT22;4732;49.340;10.886;2023-03-07T09:20:43;3.80;99.90
9385;DHT22;4732;49.340;10.886;2023-03-07T09:23:08;3.80;99.90
9385;DHT22;4732;49.340;10.886;2023-03-07T09:25:35;3.90;99.90
9385;DHT22;4732;49.340;10.886;2023-03-07T09:28:01;3.90;99.90
9385;DHT22;4732;49.340;10.886;2023-03-07T09:30:27;3.90;99.90
9385;DHT22;4732;49.340;10.886;2023-03-07T09:32:53;4.00;99.90
9385;DHT22;4732;49.340;10.886;2023-03-07T09:35:19;4.00;99.90
9385;DHT22;4732;49.340;10.886;2023-03-07T09:37:45;4.00;99.90
9385;DHT22;4732;49.340;10.886;2023-03-07T09:40:15;4.10;99.90
9385;DHT22;4732;49.340;10.886;2023-03-07T09:49:05;4.40;99.90
9385;DHT22;4732;49.340;10.886;2023-03-07T09:51:37;4.60;99.90
9385;DHT22;4732;49.340;10.886;2023-03-07T09:57:02;4.90;99.90
9385;DHT22;4732;49.340;10.886;2023-03-07T10:02:20;5.10;99.90
9385;DHT22;4732;49.340;10.886;2023-03-07T10:07:35;5.50;99.90
9385;DHT22;4732;49.340;10.886;2023-03-07T10:10:57;5.70;99.90
9385;DHT22;4732;49.340;10.886;2023-03-07T10:15:45;6.00;99.90
9385;DHT22;4732;49.340;10.886;2023-03-07T10:20:58;6.20;99.90
9385;DHT22;4732;49.340;10.886;2023-03-07T10:23:43;6.30;99.90
9385;DHT22;4732;49.340;10.886;2023-03-07T10:29:25;6.20;99.90
9385;DHT22;4732;49.340;10.886;2023-03-07T10:32:02;6.10;99.90
9385;DHT22;4732;49.340;10.886;2023-03-07T10:34:29;6.20;99.90
9385;DHT22;4732;49.340;10.886;2023-03-07T10:37:17;6.10;99.90
9385;DHT22;4732;49.340;10.886;2023-03-07T10:39:55;6.20;99.90
9385;DHT22;4732;49.340;10.886;2023-03-07T10:42:22;6.40;99.90
9385;DHT22;4732;49.340;10.886;2023-03-07T10:44:50;6.60;99.90
9385;DHT22;4732;49.340;10.886;2023-03-07T11:18:02;5.70;99.90
9385;DHT22;4732;49.340;10.886;2023-03-07T11:20:45;5.70;99.90
9385;DHT22;4732;49.340;10.886;2023-03-07T11:25:42;5.80;99.90
9385;DHT22;4732;49.340;10.886;2023-03-07T11:28:33;5.80;99.90
9385;DHT22;4732;49.340;10.886;2023-03-07T11:36:38;5.90;99.90
9385;DHT22;4732;49.340;10.886;2023-03-07T11:42:20;6.00;99.90
9385;DHT22;4732;49.340;10.886;2023-03-07T11:44:52;6.10;99.90
9385;DHT22;4732;49.340;10.886;2023-03-07T11:47:27;6.10;99.90
9385;DHT22;4732;49.340;10.886;2023-03-07T11:53:28;6.20;99.90
9385;DHT22;4732;49.340;10.886;2023-03-07T12:01:24;5.90;99.90
9385;DHT22;4732;49.340;10.886;2023-03-07T12:04:05;5.80;99.90
9385;DHT22;4732;49.340;10.886;2023-03-07T12:14:40;5.50;99.90
9385;DHT22;4732;49.340;10.886;2023-03-07T12:25:26;5.20;99.90
9385;DHT22;4732;49.340;10.886;2023-03-07T12:30:52;5.20;99.90
9385;DHT22;4732;49.340;10.886;2023-03-07T12:33:43;5.20;99.90
9385;DHT22;4732;49.340;10.886;2023-03-07T12:39:19;5.00;99.90
9385;DHT22;4732;49.340;10.886;2023-03-07T12:42:12;4.90;99.90
9385;DHT22;4732;49.340;10.886;2023-03-07T12:45:01;4.80;99.90
9385;DHT22;4732;49.340;10.886;2023-03-07T12:51:01;4.70;99.90
9385;DHT22;4732;49.340;10.886;2023-03-07T12:56:28;4.70;99.90
9385;DHT22;4732;49.340;10.886;2023-03-07T12:59:12;4.70;99.90
9385;DHT22;4732;49.340;10.886;2023-03-07T13:02:05;4.70;99.90
9385;DHT22;4732;49.340;10.886;2023-03-07T13:04:37;4.80;99.90
9385;DHT22;4732;49.340;10.886;2023-03-07T13:07:15;4.80;99.90
9385;DHT22;4732;49.340;10.886;2023-03-07T13:09:44;4.90;99.90
9385;DHT22;4732;49.340;10.886;2023-03-07T13:14:51;4.90;99.90
9385;DHT22;4732;49.340;10.886;2023-03-07T13:24:52;4.80;99.90
9385;DHT22;4732;49.340;10.886;2023-03-07T13:27:26;4.80;99.90
9385;DHT22;4732;49.340;10.886;2023-03-07T13:40:56;4.90;99.90
9385;DHT22;4732;49.340;10.886;2023-03-07T13:45:56;5.00;99.90
9385;DHT22;4732;49.340;10.886;2023-03-07T13:58:57;5.20;99.90
9385;DHT22;4732;49.340;10.886;2023-03-07T14:01:30;5.30;99.90
9385;DHT22;4732;49.340;10.886;2023-03-07T14:04:07;5.50;99.90
9385;DHT22;4732;49.340;10.886;2023-03-07T14:06:42;5.80;99.90
9385;DHT22;4732;49.340;10.886;2023-03-07T14:09:14;6.00;99.90
9385;DHT22;4732;49.340;10.886;2023-03-07T14:14:28;6.40;99.90
9385;DHT22;4732;49.340;10.886;2023-03-07T14:17:13;6.50;99.90
9385;DHT22;4732;49.340;10.886;2023-03-07T14:20:01;6.70;99.90
9385;DHT22;4732;49.340;10.886;2023-03-07T14:22:58;6.50;99.90
9385;DHT22;4732;49.340;10.886;2023-03-07T14:25:29;6.40;99.90
9385;DHT22;4732;49.340;10.886;2023-03-07T14:28:02;6.30;99.90
9385;DHT22;4732;49.340;10.886;2023-03-07T14:30:32;6.20;99.90
9385;DHT22;4732;49.340;10.886;2023-03-07T14:32:59;6.50;99.90
9385;DHT22;4732;49.340;10.886;2023-03-07T14:35:51;6.80;99.90
9385;DHT22;4732;49.340;10.886;2023-03-07T14:38:21;6.90;99.90
9385;DHT22;4732;49.340;10.886;2023-03-07T14:51:39;6.30;99.90
9385;DHT22;4732;49.340;10.886;2023-03-07T14:54:16;6.10;99.90
9385;DHT22;4732;49.340;10.886;2023-03-07T14:56:44;5.80;99.90
9385;DHT22;4732;49.340;10.886;2023-03-07T14:59:12;5.70;99.90
9385;DHT22;4732;49.340;10.886;2023-03-07T15:01:39;5.60;99.90
9385;DHT22;4732;49.340;10.886;2023-03-07T15:06:45;5.90;99.90
9385;DHT22;4732;49.340;10.886;2023-03-07T15:09:11;6.00;99.90
9385;DHT22;4732;49.340;10.886;2023-03-07T15:11:44;6.20;99.90
9385;DHT22;4732;49.340;10.886;2023-03-07T15:14:17;6.40;99.90
9385;DHT22;4732;49.340;10.886;2023-03-07T15:16:51;6.40;99.90
9385;DHT22;4732;49.340;10.886;2023-03-07T15:19:38;6.50;99.90
9385;DHT22;4732;49.340;10.886;2023-03-07T15:22:10;6.60;99.90
9385;DHT22;4732;49.340;10.886;2023-03-07T15:24:38;6.70;99.90
9385;DHT22;4732;49.340;10.886;2023-03-07T15:27:11;6.90;99.90
9385;DHT22;4732;49.340;10.886;2023-03-07T15:29:43;7.00;99.90
9385;DHT22;4732;49.340;10.886;2023-03-07T15:32:29;7.00;99.90
9385;DHT22;4732;49.340;10.886;2023-03-07T15:37:35;7.00;99.90
9385;DHT22;4732;49.340;10.886;2023-03-07T15:42:32;7.20;99.90
9385;DHT22;4732;49.340;10.886;2023-03-07T15:45:01;7.40;99.90
9385;DHT22;4732;49.340;10.886;2023-03-07T15:47:29;7.50;99.90
9385;DHT22;4732;49.340;10.886;2023-03-07T15:50:02;7.70;99.90
9385;DHT22;4732;49.340;10.886;2023-03-07T15:52:35;7.90;99.90
9385;DHT22;4732;49.340;10.886;2023-03-07T15:55:04;7.90;99.90
9385;DHT22;4732;49.340;10.886;2023-03-07T16:00:40;7.50;99.90
9385;DHT22;4732;49.340;10.886;2023-03-07T16:03:27;6.80;99.90
9385;DHT22;4732;49.340;10.886;2023-03-07T16:05:55;6.40;99.90
9385;DHT22;4732;49.340;10.886;2023-03-07T16:08:22;6.10;99.90
9385;DHT22;4732;49.340;10.886;2023-03-07T16:10:55;5.90;99.90
9385;DHT22;4732;49.340;10.886;2023-03-07T16:13:26;5.90;99.90
9385;DHT22;4732;49.340;10.886;2023-03-07T16:16:14;5.60;99.90
9385;DHT22;4732;49.340;10.886;2023-03-07T16:18:41;5.50;99.90
9385;DHT22;4732;49.340;10.886;2023-03-07T16:21:15;5.40;99.90
9385;DHT22;4732;49.340;10.886;2023-03-07T16:23:41;5.20;99.90
9385;DHT22;4732;49.340;10.886;2023-03-07T16:26:15;5.10;99.90
9385;DHT22;4732;49.340;10.886;2023-03-07T16:28:41;5.00;99.90
9385;DHT22;4732;49.340;10.886;2023-03-07T16:31:11;5.00;99.90
9385;DHT22;4732;49.340;10.886;2023-03-07T16:33:37;4.90;99.90
9385;DHT22;4732;49.340;10.886;2023-03-07T16:36:02;4.90;99.90
9385;DHT22;4732;49.340;10.886;2023-03-07T16:38:28;4.90;99.90
9385;DHT22;4732;49.340;10.886;2023-03-07T16:40:54;4.90;99.90
9385;DHT22;4732;49.340;10.886;2023-03-07T16:43:33;4.80;99.90
9385;DHT22;4732;49.340;10.886;2023-03-07T16:46:01;4.80;99.90
9385;DHT22;4732;49.340;10.886;2023-03-07T16:48:27;4.80;99.90
9385;DHT22;4732;49.340;10.886;2023-03-07T16:50:52;4.70;99.90
9385;DHT22;4732;49.340;10.886;2023-03-07T16:53:18;4.70;99.90
9385;DHT22;4732;49.340;10.886;2023-03-07T16:55:44;4.70;99.90
9385;DHT22;4732;49.340;10.886;2023-03-07T16:58:23;4.70;99.90
9385;DHT22;4732;49.340;10.886;2023-03-07T17:00:50;4.70;99.90
9385;DHT22;4732;49.340;10.886;2023-03-07T17:03:16;4.60;99.90
9385;DHT22;4732;49.340;10.886;2023-03-07T17:05:42;4.60;99.90
9385;DHT22;4732;49.340;10.886;2023-03-07T17:08:07;4.60;99.90
9385;DHT22;4732;49.340;10.886;2023-03-07T17:10:35;4.60;99.90
9385;DHT22;4732;49.340;10.886;2023-03-07T17:13:02;4.50;99.90
9385;DHT22;4732;49.340;10.886;2023-03-07T17:15:29;4.50;99.90
9385;DHT22;4732;49.340;10.886;2023-03-07T17:17:56;4.50;99.90
9385;DHT22;4732;49.340;10.886;2023-03-07T17:20:22;4.50;99.90
9385;DHT22;4732;49.340;10.886;2023-03-07T17:22:49;4.50;99.90
9385;DHT22;4732;49.340;10.886;2023-03-07T17:25:16;4.40;99.90
9385;DHT22;4732;49.340;10.886;2023-03-07T17:27:51;4.40;99.90
9385;DHT22;4732;49.340;10.886;2023-03-07T17:30:24;4.30;99.90
9385;DHT22;4732;49.340;10.886;2023-03-07T17:32:50;4.30;99.90
9385;DHT22;4732;49.340;10.886;2023-03-07T17:35:16;4.30;99.90
9385;DHT22;4732;49.340;10.886;2023-03-07T17:37:42;4.30;99.90
9385;DHT22;4732;49.340;10.886;2023-03-07T17:40:10;4.30;99.90
9385;DHT22;4732;49.340;10.886;2023-03-07T17:42:37;4.20;99.90
9385;DHT22;4732;49.340;10.886;2023-03-07T17:45:04;4.30;99.90
9385;DHT22;4732;49.340;10.886;2023-03-07T17:47:31;4.20;99.90
9385;DHT22;4732;49.340;10.886;2023-03-07T17:49:57;4.20;99.90
9385;DHT22;4732;49.340;10.886;2023-03-07T17:52:22;4.10;99.90
9385;DHT22;4732;49.340;10.886;2023-03-07T17:54:48;4.10;99.90
9385;DHT22;4732;49.340;10.886;2023-03-07T17:57:15;4.10;99.90
9385;DHT22;4732;49.340;10.886;2023-03-07T17:59:40;4.10;99.90
9385;DHT22;4732;49.340;10.886;2023-03-07T18:02:08;4.10;99.90
9385;DHT22;4732;49.340;10.886;2023-03-07T18:04:35;4.10;99.90
9385;DHT22;4732;49.340;10.886;2023-03-07T18:07:01;4.10;99.90
9385;DHT22;4732;49.340;10.886;2023-03-07T18:09:26;4.10;99.90
9385;DHT22;4732;49.340;10.886;2023-03-07T18:11:52;4.10;99.90
9385;DHT22;4732;49.340;10.886;2023-03-07T18:14:18;4.10;99.90
9385;DHT22;4732;49.340;10.886;2023-03-07T18:16:44;4.10;99.90
9385;DHT22;4732;49.340;10.886;2023-03-07T18:19:11;3.90;99.90
9385;DHT22;4732;49.340;10.886;2023-03-07T18:21:37;4.00;99.90
9385;DHT22;4732;49.340;10.886;2023-03-07T18:24:21;4.00;99.90
9385;DHT22;4732;49.340;10.886;2023-03-07T18:26:50;4.00;99.90
9385;DHT22;4732;49.340;10.886;2023-03-07T18:29:16;4.10;99.90
9385;DHT22;4732;49.340;10.886;2023-03-07T18:31:42;4.10;99.90
9385;DHT22;4732;49.340;10.886;2023-03-07T18:34:11;4.00;99.90
9385;DHT22;4732;49.340;10.886;2023-03-07T18:36:38;4.10;99.90
9385;DHT22;4732;49.340;10.886;2023-03-07T18:39:04;4.10;99.90
9385;DHT22;4732;49.340;10.886;2023-03-07T18:41:30;4.00;99.90
9385;DHT22;4732;49.340;10.886;2023-03-07T18:43:57;4.10;99.90
9385;DHT22;4732;49.340;10.886;2023-03-07T18:46:25;4.10;99.90
9385;DHT22;4732;49.340;10.886;2023-03-07T18:48:54;4.00;99.90
9385;DHT22;4732;49.340;10.886;2023-03-07T18:51:21;4.00;99.90
9385;DHT22;4732;49.340;10.886;2023-03-07T18:53:53;4.00;99.90
9385;DHT22;4732;49.340;10.886;2023-03-07T18:56:21;4.00;99.90
9385;DHT22;4732;49.340;10.886;2023-03-07T18:58:46;4.00;99.90
9385;DHT22;4732;49.340;10.886;2023-03-07T19:01:18;3.90;99.90
9385;DHT22;4732;49.340;10.886;2023-03-07T19:03:46;3.90;99.90
9385;DHT22;4732;49.340;10.886;2023-03-07T19:06:13;3.90;99.90
9385;DHT22;4732;49.340;10.886;2023-03-07T19:08:39;3.90;99.90
9385;DHT22;4732;49.340;10.886;2023-03-07T19:11:06;3.90;99.90
9385;DHT22;4732;49.340;10.886;2023-03-07T19:13:33;3.90;99.90
9385;DHT22;4732;49.340;10.886;2023-03-07T19:16:15;3.90;99.90
9385;DHT22;4732;49.340;10.886;2023-03-07T19:18:41;3.90;99.90
9385;DHT22;4732;49.340;10.886;2023-03-07T19:21:12;3.90;99.90
9385;DHT22;4732;49.340;10.886;2023-03-07T19:23:38;3.90;99.90
9385;DHT22;4732;49.340;10.886;2023-03-07T19:26:06;3.90;99.90
9385;DHT22;4732;49.340;10.886;2023-03-07T19:28:33;3.90;99.90
9385;DHT22;4732;49.340;10.886;2023-03-07T19:31:16;3.90;99.90
9385;DHT22;4732;49.340;10.886;2023-03-07T19:33:44;4.00;99.90
9385;DHT22;4732;49.340;10.886;2023-03-07T19:36:12;4.00;99.90
9385;DHT22;4732;49.340;10.886;2023-03-07T19:38:38;4.00;99.90
9385;DHT22;4732;49.340;10.886;2023-03-07T19:41:10;3.90;99.90
9385;DHT22;4732;49.340;10.886;2023-03-07T19:43:37;4.00;99.90
9385;DHT22;4732;49.340;10.886;2023-03-07T19:46:04;4.00;99.90
9385;DHT22;4732;49.340;10.886;2023-03-07T19:48:31;3.90;99.90
9385;DHT22;4732;49.340;10.886;2023-03-07T19:50:57;3.90;99.90
9385;DHT22;4732;49.340;10.886;2023-03-07T19:53:23;3.90;99.90
9385;DHT22;4732;49.340;10.886;2023-03-07T19:55:48;3.90;99.90
9385;DHT22;4732;49.340;10.886;2023-03-07T19:58:15;3.90;99.90
9385;DHT22;4732;49.340;10.886;2023-03-07T20:00:44;3.90;99.90
9385;DHT22;4732;49.340;10.886;2023-03-07T20:03:15;3.90;99.90
9385;DHT22;4732;49.340;10.886;2023-03-07T20:05:46;3.90;99.90
9385;DHT22;4732;49.340;10.886;2023-03-07T20:08:15;3.90;99.90
9385;DHT22;4732;49.340;10.886;2023-03-07T20:10:41;3.90;99.90
9385;DHT22;4732;49.340;10.886;2023-03-07T20:13:07;3.90;99.90
9385;DHT22;4732;49.340;10.886;2023-03-07T20:15:34;3.90;99.90
9385;DHT22;4732;49.340;10.886;2023-03-07T20:18:01;3.90;99.90
9385;DHT22;4732;49.340;10.886;2023-03-07T20:20:30;3.90;99.90
9385;DHT22;4732;49.340;10.886;2023-03-07T20:22:59;3.90;99.90
9385;DHT22;4732;49.340;10.886;2023-03-07T20:25:29;3.90;99.90
9385;DHT22;4732;49.340;10.886;2023-03-07T20:27:55;3.90;99.90
9385;DHT22;4732;49.340;10.886;2023-03-07T20:30:21;3.90;99.90
9385;DHT22;4732;49.340;10.886;2023-03-07T20:32:48;3.90;99.90
9385;DHT22;4732;49.340;10.886;2023-03-07T20:35:14;3.90;99.90
9385;DHT22;4732;49.340;10.886;2023-03-07T20:37:40;3.90;99.90
9385;DHT22;4732;49.340;10.886;2023-03-07T20:40:06;3.80;99.90
9385;DHT22;4732;49.340;10.886;2023-03-07T20:42:32;3.80;99.90
9385;DHT22;4732;49.340;10.886;2023-03-07T20:44:58;3.80;99.90
9385;DHT22;4732;49.340;10.886;2023-03-07T20:47:24;3.80;99.90
9385;DHT22;4732;49.340;10.886;2023-03-07T20:49:50;3.80;99.90
9385;DHT22;4732;49.340;10.886;2023-03-07T20:52:17;3.80;99.90
9385;DHT22;4732;49.340;10.886;2023-03-07T20:54:44;3.90;99.90
9385;DHT22;4732;49.340;10.886;2023-03-07T20:57:10;3.90;99.90
9385;DHT22;4732;49.340;10.886;2023-03-07T20:59:36;4.00;99.90
9385;DHT22;4732;49.340;10.886;2023-03-07T21:02:02;4.00;99.90
9385;DHT22;4732;49.340;10.886;2023-03-07T21:04:30;4.00;99.90
9385;DHT22;4732;49.340;10.886;2023-03-07T21:06:56;4.00;99.90
9385;DHT22;4732;49.340;10.886;2023-03-07T21:09:22;4.10;99.90
9385;DHT22;4732;49.340;10.886;2023-03-07T21:11:48;4.10;99.90
9385;DHT22;4732;49.340;10.886;2023-03-07T21:14:16;4.10;99.90
9385;DHT22;4732;49.340;10.886;2023-03-07T21:16:42;4.10;99.90
9385;DHT22;4732;49.340;10.886;2023-03-07T21:19:17;4.10;99.90
9385;DHT22;4732;49.340;10.886;2023-03-07T21:21:43;4.00;99.90
9385;DHT22;4732;49.340;10.886;2023-03-07T21:24:10;4.10;99.90
9385;DHT22;4732;49.340;10.886;2023-03-07T21:26:41;4.10;99.90
9385;DHT22;4732;49.340;10.886;2023-03-07T21:29:15;4.20;99.90
9385;DHT22;4732;49.340;10.886;2023-03-07T21:31:45;4.20;99.90
9385;DHT22;4732;49.340;10.886;2023-03-07T21:34:12;4.10;99.90
9385;DHT22;4732;49.340;10.886;2023-03-07T21:36:38;4.10;99.90
9385;DHT22;4732;49.340;10.886;2023-03-07T21:39:05;4.20;99.90
9385;DHT22;4732;49.340;10.886;2023-03-07T21:41:32;4.20;99.90
9385;DHT22;4732;49.340;10.886;2023-03-07T21:43:59;4.20;99.90
9385;DHT22;4732;49.340;10.886;2023-03-07T21:46:25;4.20;99.90
9385;DHT22;4732;49.340;10.886;2023-03-07T21:48:52;4.20;99.90
9385;DHT22;4732;49.340;10.886;2023-03-07T21:51:18;4.20;99.90
9385;DHT22;4732;49.340;10.886;2023-03-07T21:53:45;4.30;99.90
9385;DHT22;4732;49.340;10.886;2023-03-07T21:56:14;4.30;99.90
9385;DHT22;4732;49.340;10.886;2023-03-07T21:58:41;4.30;99.90
9385;DHT22;4732;49.340;10.886;2023-03-07T22:01:11;4.20;99.90
9385;DHT22;4732;49.340;10.886;2023-03-07T22:03:38;4.20;99.90
9385;DHT22;4732;49.340;10.886;2023-03-07T22:06:06;4.20;99.90
9385;DHT22;4732;49.340;10.886;2023-03-07T22:08:31;4.10;99.90
9385;DHT22;4732;49.340;10.886;2023-03-07T22:10:59;4.10;99.90
9385;DHT22;4732;49.340;10.886;2023-03-07T22:13:29;4.20;99.90
9385;DHT22;4732;49.340;10.886;2023-03-07T22:15:57;4.20;99.90
9385;DHT22;4732;49.340;10.886;2023-03-07T22:18:22;4.20;99.90
9385;DHT22;4732;49.340;10.886;2023-03-07T22:20:48;4.20;99.90
9385;DHT22;4732;49.340;10.886;2023-03-07T22:23:17;4.20;99.90
9385;DHT22;4732;49.340;10.886;2023-03-07T22:25:43;4.10;99.90
9385;DHT22;4732;49.340;10.886;2023-03-07T22:28:09;4.10;99.90
9385;DHT22;4732;49.340;10.886;2023-03-07T22:30:35;4.10;99.90
9385;DHT22;4732;49.340;10.886;2023-03-07T22:33:00;4.10;99.90
9385;DHT22;4732;49.340;10.886;2023-03-07T22:35:26;4.20;99.90
9385;DHT22;4732;49.340;10.886;2023-03-07T22:37:52;4.20;99.90
9385;DHT22;4732;49.340;10.886;2023-03-07T22:40:20;4.20;99.90
9385;DHT22;4732;49.340;10.886;2023-03-07T22:42:46;4.20;99.90
9385;DHT22;4732;49.340;10.886;2023-03-07T22:45:12;4.20;99.90
9385;DHT22;4732;49.340;10.886;2023-03-07T22:47:37;4.20;99.90
9385;DHT22;4732;49.340;10.886;2023-03-07T22:50:03;4.10;99.90
9385;DHT22;4732;49.340;10.886;2023-03-07T22:52:29;4.00;99.90
9385;DHT22;4732;49.340;10.886;2023-03-07T22:54:55;4.00;99.90
9385;DHT22;4732;49.340;10.886;2023-03-07T22:57:21;4.00;99.90
9385;DHT22;4732;49.340;10.886;2023-03-07T22:59:47;4.00;99.90
9385;DHT22;4732;49.340;10.886;2023-03-07T23:02:13;4.00;99.90
9385;DHT22;4732;49.340;10.886;2023-03-07T23:04:38;4.00;99.90
9385;DHT22;4732;49.340;10.886;2023-03-07T23:07:04;4.00;99.90
9385;DHT22;4732;49.340;10.886;2023-03-07T23:09:30;3.90;99.90
9385;DHT22;4732;49.340;10.886;2023-03-07T23:11:56;3.80;99.90
9385;DHT22;4732;49.340;10.886;2023-03-07T23:14:21;3.80;99.90
